createdAt,value
2022-10-29T00:01:04.747Z,7.15
2022-10-29T00:03:40.244Z,7.12
2022-10-29T00:06:12.021Z,7.10
2022-10-29T00:08:41.324Z,7.09
2022-10-29T00:11:13.148Z,7.08
2022-10-29T00:13:41.442Z,7.10
2022-10-29T00:16:21.018Z,7.14
2022-10-29T00:18:49.104Z,7.14
2022-10-29T00:21:20.600Z,7.22
2022-10-29T00:23:48.728Z,7.26
2022-10-29T00:26:18.840Z,7.27
2022-10-29T00:28:47.319Z,7.24
2022-10-29T00:31:18.989Z,7.22
2022-10-29T00:33:47.079Z,7.15
2022-10-29T00:36:22.241Z,7.12
2022-10-29T00:38:50.604Z,7.08
2022-10-29T00:41:28.214Z,7.07
2022-10-29T00:44:14.439Z,7.07
2022-10-29T00:46:45.947Z,7.08
2022-10-29T00:49:16.939Z,7.09
2022-10-29T00:51:46.634Z,7.08
2022-10-29T00:54:16.441Z,7.08
2022-10-29T00:56:51.008Z,7.07
2022-10-29T00:59:19.117Z,7.07
2022-10-29T01:01:49.070Z,7.07
2022-10-29T01:04:17.929Z,7.06
2022-10-29T01:06:47.285Z,7.07
2022-10-29T01:09:15.353Z,7.06
2022-10-29T01:12:31.953Z,7.04
2022-10-29T01:15:27.159Z,6.95
2022-10-29T01:18:06.904Z,6.89
2022-10-29T01:21:08.000Z,6.86
2022-10-29T01:23:48.401Z,6.79
2022-10-29T01:26:50.242Z,6.79
2022-10-29T01:29:48.599Z,6.67
2022-10-29T01:32:25.004Z,6.62
2022-10-29T01:35:09.532Z,6.58
2022-10-29T01:37:55.781Z,6.51
2022-10-29T01:41:17.324Z,6.59
2022-10-29T01:43:50.664Z,6.57
2022-10-29T01:46:24.987Z,6.46
2022-10-29T01:48:56.894Z,6.45
2022-10-29T01:51:29.398Z,6.51
2022-10-29T01:54:00.199Z,6.56
2022-10-29T01:56:27.979Z,6.60
2022-10-29T01:58:59.618Z,6.47
2022-10-29T02:01:39.605Z,6.39
2022-10-29T02:04:37.393Z,6.38
2022-10-29T02:07:27.804Z,6.39
2022-10-29T02:10:08.770Z,6.42
2022-10-29T02:12:49.338Z,6.42
2022-10-29T02:15:32.341Z,6.38
2022-10-29T02:18:05.687Z,6.33
2022-10-29T02:20:34.611Z,6.28
2022-10-29T02:23:02.460Z,6.23
2022-10-29T02:25:30.517Z,6.18
2022-10-29T02:27:59.630Z,6.13
2022-10-29T02:30:27.605Z,6.09
2022-10-29T02:32:55.647Z,6.06
2022-10-29T02:35:23.842Z,6.04
2022-10-29T02:37:51.682Z,6.02
2022-10-29T02:40:19.441Z,6.01
2022-10-29T02:42:47.183Z,6.01
2022-10-29T02:45:15.033Z,6.02
2022-10-29T02:47:42.765Z,6.03
2022-10-29T02:50:10.790Z,6.04
2022-10-29T02:52:39.994Z,6.05
2022-10-29T02:55:08.166Z,6.08
2022-10-29T02:57:36.004Z,6.09
2022-10-29T03:00:05.301Z,6.12
2022-10-29T03:02:33.173Z,6.14
2022-10-29T03:05:00.959Z,6.17
2022-10-29T03:07:28.887Z,6.19
2022-10-29T03:09:56.734Z,6.19
2022-10-29T03:12:24.873Z,6.15
2022-10-29T03:14:52.784Z,6.11
2022-10-29T03:17:20.617Z,6.07
2022-10-29T03:19:48.421Z,6.01
2022-10-29T03:22:16.217Z,5.96
2022-10-29T03:24:44.263Z,5.89
2022-10-29T03:27:12.100Z,5.82
2022-10-29T03:29:39.958Z,5.76
2022-10-29T03:32:07.893Z,5.70
2022-10-29T03:34:35.694Z,5.66
2022-10-29T03:37:04.158Z,5.64
2022-10-29T03:39:32.005Z,5.62
2022-10-29T03:41:59.783Z,5.61
2022-10-29T03:44:27.724Z,5.59
2022-10-29T03:46:55.604Z,5.60
2022-10-29T03:49:23.510Z,5.61
2022-10-29T03:51:51.368Z,5.62
2022-10-29T03:54:19.246Z,5.63
2022-10-29T03:56:47.156Z,5.65
2022-10-29T03:59:15.076Z,5.64
2022-10-29T04:01:43.160Z,5.64
2022-10-29T04:04:11.301Z,5.63
2022-10-29T04:06:39.232Z,5.62
2022-10-29T04:09:07.234Z,5.58
2022-10-29T04:11:35.233Z,5.54
2022-10-29T04:14:03.162Z,5.50
2022-10-29T04:16:31.189Z,5.45
2022-10-29T04:18:59.387Z,5.40
2022-10-29T04:23:40.263Z,5.33
2022-10-29T04:29:54.813Z,5.26
2022-10-29T04:32:22.785Z,5.26
2022-10-29T04:34:50.588Z,5.26
2022-10-29T04:37:18.437Z,5.28
2022-10-29T04:39:46.397Z,5.30
2022-10-29T04:42:14.234Z,5.31
2022-10-29T04:44:42.296Z,5.30
2022-10-29T04:47:10.203Z,5.33
2022-10-29T04:49:38.150Z,5.34
2022-10-29T04:52:06.075Z,5.30
2022-10-29T04:54:34.044Z,5.22
2022-10-29T04:57:02.059Z,5.14
2022-10-29T04:59:29.982Z,5.02
2022-10-29T05:01:58.049Z,4.93
2022-10-29T05:04:28.319Z,4.87
2022-10-29T05:06:56.345Z,4.79
2022-10-29T05:09:24.255Z,4.72
2022-10-29T05:11:52.317Z,4.68
2022-10-29T05:14:20.232Z,4.63
2022-10-29T05:16:48.106Z,4.59
2022-10-29T05:19:15.990Z,4.57
2022-10-29T05:21:43.756Z,4.55
2022-10-29T05:24:11.506Z,4.57
2022-10-29T05:26:39.694Z,4.59
2022-10-29T05:29:09.898Z,4.58
2022-10-29T05:31:37.634Z,4.56
2022-10-29T05:34:05.496Z,4.54
2022-10-29T05:36:33.345Z,4.58
2022-10-29T05:39:01.159Z,4.68
2022-10-29T05:41:29.018Z,4.93
2022-10-29T05:43:57.068Z,5.27
2022-10-29T05:46:24.936Z,5.62
2022-10-29T05:48:52.751Z,5.92
2022-10-29T05:51:20.801Z,6.19
2022-10-29T05:53:48.982Z,6.39
2022-10-29T05:56:17.004Z,6.43
2022-10-29T05:58:44.767Z,6.40
2022-10-29T06:01:12.784Z,6.45
2022-10-29T06:03:40.832Z,6.64
2022-10-29T06:06:09.079Z,6.98
2022-10-29T06:08:37.429Z,7.29
2022-10-29T06:11:05.476Z,7.57
2022-10-29T06:13:33.971Z,7.77
2022-10-29T06:16:02.063Z,7.91
2022-10-29T06:18:30.213Z,8.12
2022-10-29T06:21:00.227Z,8.33
2022-10-29T06:23:29.169Z,8.55
2022-10-29T06:26:01.179Z,8.80
2022-10-29T06:28:33.685Z,9.03
2022-10-29T06:31:03.342Z,9.27
2022-10-29T06:33:31.916Z,9.45
2022-10-29T06:36:01.096Z,9.61
2022-10-29T06:38:29.017Z,9.72
2022-10-29T06:40:56.847Z,9.78
2022-10-29T06:43:24.703Z,9.80
2022-10-29T06:45:52.524Z,9.84
2022-10-29T06:48:22.454Z,9.94
2022-10-29T06:50:51.771Z,10.11
2022-10-29T06:53:20.377Z,10.18
2022-10-29T06:55:49.320Z,10.26
2022-10-29T06:58:19.772Z,10.25
2022-10-29T07:00:48.651Z,10.10
2022-10-29T07:03:19.240Z,9.88
2022-10-29T07:05:47.858Z,9.84
2022-10-29T07:08:15.685Z,9.84
2022-10-29T07:10:43.595Z,9.93
2022-10-29T07:13:11.660Z,10.10
2022-10-29T07:15:39.469Z,10.22
2022-10-29T07:18:09.855Z,10.29
2022-10-29T07:20:40.326Z,10.39
2022-10-29T07:23:09.250Z,10.40
2022-10-29T07:25:39.120Z,10.44
2022-10-29T07:28:12.472Z,10.46
2022-10-29T07:30:41.019Z,10.40
2022-10-29T07:33:09.438Z,10.37
2022-10-29T07:35:38.220Z,10.30
2022-10-29T07:38:10.748Z,10.26
2022-10-29T07:40:40.973Z,10.22
2022-10-29T07:43:09.371Z,10.16
2022-10-29T07:45:37.526Z,10.14
2022-10-29T07:48:10.260Z,9.94
2022-10-29T07:50:38.842Z,9.72
2022-10-29T07:53:08.057Z,9.57
2022-10-29T07:55:36.509Z,9.49
2022-10-29T07:58:07.138Z,9.34
2022-10-29T08:00:38.232Z,9.26
2022-10-29T08:03:07.163Z,9.28
2022-10-29T08:05:35.779Z,9.30
2022-10-29T08:08:04.334Z,9.34
2022-10-29T08:10:35.029Z,9.47
2022-10-29T08:13:05.560Z,9.59
2022-10-29T08:15:35.253Z,9.71
2022-10-29T08:18:09.614Z,9.81
2022-10-29T08:20:37.956Z,9.86
2022-10-29T08:23:05.767Z,9.86
2022-10-29T08:25:33.552Z,9.95
2022-10-29T08:28:03.790Z,10.10
2022-10-29T08:30:32.168Z,10.16
2022-10-29T08:33:00.815Z,10.13
2022-10-29T08:35:29.371Z,10.13
2022-10-29T08:37:57.843Z,10.22
2022-10-29T08:40:38.383Z,10.32
2022-10-29T08:43:25.137Z,10.44
2022-10-29T08:45:55.354Z,10.54
2022-10-29T08:48:29.681Z,10.61
2022-10-29T08:51:20.935Z,10.68
2022-10-29T08:54:25.064Z,10.79
2022-10-29T08:56:49.660Z,10.84
2022-10-29T08:59:23.393Z,10.88
2022-10-29T09:01:55.159Z,10.95
2022-10-29T09:04:24.736Z,11.06
2022-10-29T09:07:06.722Z,11.17
2022-10-29T09:09:39.683Z,11.32
2022-10-29T09:12:32.828Z,11.43
2022-10-29T09:15:10.270Z,11.50
2022-10-29T09:17:47.423Z,11.55
2022-10-29T09:20:41.221Z,11.59
2022-10-29T09:23:40.506Z,11.68
2022-10-29T09:26:26.576Z,11.80
2022-10-29T09:29:03.698Z,11.87
2022-10-29T09:31:43.961Z,11.94
2022-10-29T09:34:19.113Z,12.00
2022-10-29T09:36:48.568Z,12.09
2022-10-29T09:39:31.591Z,12.19
2022-10-29T09:42:03.267Z,12.30
2022-10-29T09:44:43.696Z,12.38
2022-10-29T09:47:39.463Z,12.45
2022-10-29T09:50:19.723Z,12.47
2022-10-29T09:52:49.649Z,12.51
2022-10-29T09:55:25.769Z,12.55
2022-10-29T09:57:55.920Z,12.58
2022-10-29T10:00:27.633Z,12.58
2022-10-29T10:03:04.658Z,12.65
2022-10-29T10:05:37.212Z,12.73
2022-10-29T10:08:08.446Z,12.78
2022-10-29T10:10:48.960Z,12.79
2022-10-29T10:13:17.822Z,12.78
2022-10-29T10:15:58.193Z,12.80
2022-10-29T10:18:38.563Z,12.85
2022-10-29T10:21:26.828Z,12.93
2022-10-29T10:23:57.791Z,13.00
2022-10-29T10:26:31.763Z,13.07
2022-10-29T10:29:25.253Z,13.17
2022-10-29T10:31:56.113Z,13.28
2022-10-29T10:34:24.928Z,13.41
2022-10-29T10:37:02.557Z,13.53
2022-10-29T10:39:32.704Z,13.66
2022-10-29T10:42:04.415Z,13.70
2022-10-29T10:44:33.795Z,13.70
2022-10-29T10:47:07.105Z,13.75
2022-10-29T10:49:39.291Z,13.79
2022-10-29T10:52:17.486Z,13.86
2022-10-29T10:55:01.536Z,13.86
2022-10-29T10:57:39.149Z,13.83
2022-10-29T11:00:17.146Z,13.81
2022-10-29T11:02:55.105Z,13.83
2022-10-29T11:05:29.688Z,13.93
2022-10-29T11:08:00.632Z,14.01
2022-10-29T11:10:45.319Z,14.12
2022-10-29T11:13:18.547Z,14.21
2022-10-29T11:15:49.282Z,14.20
2022-10-29T11:18:23.380Z,14.16
2022-10-29T11:21:26.471Z,14.18
2022-10-29T11:24:04.565Z,14.23
2022-10-29T11:26:41.657Z,14.25
2022-10-29T11:29:19.595Z,14.23
2022-10-29T11:32:02.686Z,14.22
2022-10-29T11:34:37.376Z,14.22
2022-10-29T11:37:29.667Z,14.26
2022-10-29T11:40:19.838Z,14.32
2022-10-29T11:42:48.049Z,14.42
2022-10-29T11:45:22.748Z,14.48
2022-10-29T11:48:10.855Z,14.51
2022-10-29T11:50:42.912Z,14.50
2022-10-29T11:53:21.685Z,14.54
2022-10-29T11:56:03.863Z,14.59
2022-10-29T11:58:42.804Z,14.62
2022-10-29T12:01:34.948Z,14.64
2022-10-29T12:04:15.917Z,14.72
2022-10-29T12:07:05.047Z,14.75
2022-10-29T12:10:18.713Z,14.76
2022-10-29T12:12:59.616Z,14.79
2022-10-29T12:15:36.256Z,14.77
2022-10-29T12:18:19.172Z,14.77
2022-10-29T12:21:16.385Z,14.80
2022-10-29T12:23:56.464Z,14.83
2022-10-29T12:26:46.419Z,14.87
2022-10-29T12:29:27.340Z,14.89
2022-10-29T12:32:17.880Z,14.89
2022-10-29T12:35:03.055Z,14.87
2022-10-29T12:38:03.393Z,14.88
2022-10-29T12:40:35.141Z,14.91
2022-10-29T12:43:10.488Z,14.92
2022-10-29T12:46:14.832Z,14.93
2022-10-29T12:48:53.996Z,14.95
2022-10-29T12:52:00.914Z,14.96
2022-10-29T12:54:38.742Z,14.96
2022-10-29T12:57:12.617Z,14.93
2022-10-29T12:59:42.755Z,14.91
2022-10-29T13:02:26.344Z,14.90
2022-10-29T13:05:07.083Z,14.92
2022-10-29T13:07:36.960Z,14.92
2022-10-29T13:10:23.621Z,14.94
2022-10-29T13:13:13.405Z,14.95
2022-10-29T13:15:47.136Z,14.94
2022-10-29T13:18:17.815Z,14.91
2022-10-29T13:20:51.935Z,14.87
2022-10-29T13:23:22.814Z,14.85
2022-10-29T13:26:03.087Z,14.89
2022-10-29T13:28:30.776Z,14.92
2022-10-29T13:31:01.582Z,14.95
2022-10-29T13:33:29.486Z,14.98
2022-10-29T13:35:57.419Z,15.01
2022-10-29T13:39:05.953Z,15.01
2022-10-29T13:41:42.843Z,15.00
2022-10-29T13:44:23.097Z,14.97
2022-10-29T13:47:21.785Z,14.95
2022-10-29T13:49:51.317Z,14.93
2022-10-29T13:52:23.990Z,14.91
2022-10-29T13:54:57.773Z,14.91
2022-10-29T13:57:34.291Z,14.92
2022-10-29T14:00:15.997Z,14.94
2022-10-29T14:02:48.613Z,14.95
2022-10-29T14:05:32.045Z,14.97
2022-10-29T14:08:20.776Z,14.97
2022-10-29T14:10:53.428Z,14.95
2022-10-29T14:13:31.290Z,14.93
2022-10-29T14:16:02.509Z,14.91
2022-10-29T14:18:33.040Z,14.87
2022-10-29T14:21:02.468Z,14.83
2022-10-29T14:23:31.898Z,14.82
2022-10-29T14:26:03.931Z,14.81
2022-10-29T14:28:33.709Z,14.79
2022-10-29T14:31:03.823Z,14.77
2022-10-29T14:33:36.798Z,14.74
2022-10-29T14:36:13.496Z,14.72
2022-10-29T14:38:57.250Z,14.68
2022-10-29T14:41:27.974Z,14.63
2022-10-29T14:44:09.185Z,14.60
2022-10-29T14:46:38.923Z,14.55
2022-10-29T14:49:23.507Z,14.49
2022-10-29T14:52:01.315Z,14.42
2022-10-29T14:54:34.134Z,14.35
2022-10-29T14:57:07.921Z,14.28
2022-10-29T14:59:36.377Z,14.23
2022-10-29T15:02:36.212Z,14.20
2022-10-29T15:05:07.083Z,14.16
2022-10-29T15:07:36.494Z,14.12
2022-10-29T15:10:24.783Z,14.08
2022-10-29T15:12:53.965Z,14.04
2022-10-29T15:15:28.418Z,13.98
2022-10-29T15:18:06.239Z,13.93
2022-10-29T15:20:46.686Z,13.87
2022-10-29T15:23:23.852Z,13.80
2022-10-29T15:25:58.950Z,13.72
2022-10-29T15:28:29.763Z,13.61
2022-10-29T15:31:03.257Z,13.50
2022-10-29T15:33:32.116Z,13.38
2022-10-29T15:36:02.151Z,13.25
2022-10-29T15:38:30.042Z,13.14
2022-10-29T15:41:19.950Z,13.04
2022-10-29T15:43:54.956Z,12.93
2022-10-29T15:46:28.816Z,12.84
2022-10-29T15:48:56.702Z,12.76
2022-10-29T15:51:28.606Z,12.69
2022-10-29T15:53:59.143Z,12.63
2022-10-29T15:56:28.334Z,12.59
2022-10-29T15:58:58.207Z,12.53
2022-10-29T16:01:26.155Z,12.46
2022-10-29T16:03:54.274Z,12.40
2022-10-29T16:06:22.178Z,12.32
2022-10-29T16:08:55.561Z,12.26
2022-10-29T16:11:23.941Z,12.18
2022-10-29T16:13:55.272Z,12.09
2022-10-29T16:16:25.678Z,12.00
2022-10-29T16:18:54.674Z,11.90
2022-10-29T16:21:24.907Z,11.81
2022-10-29T16:23:53.104Z,11.74
2022-10-29T16:26:25.708Z,11.69
2022-10-29T16:28:53.703Z,11.63
2022-10-29T16:31:26.807Z,11.59
2022-10-29T16:33:58.649Z,11.57
2022-10-29T16:36:26.929Z,11.55
2022-10-29T16:38:55.001Z,11.52
2022-10-29T16:41:22.900Z,11.50
2022-10-29T16:43:50.991Z,11.49
2022-10-29T16:46:18.890Z,11.48
2022-10-29T16:48:46.862Z,11.46
2022-10-29T16:51:14.879Z,11.45
2022-10-29T16:53:42.838Z,11.41
2022-10-29T16:56:10.601Z,11.37
2022-10-29T16:58:38.410Z,11.35
2022-10-29T17:01:10.416Z,11.32
2022-10-29T17:03:41.676Z,11.26
2022-10-29T17:06:11.127Z,11.20
2022-10-29T17:08:39.186Z,11.16
2022-10-29T17:11:10.162Z,11.12
2022-10-29T17:13:38.849Z,11.08
2022-10-29T17:16:14.833Z,11.07
2022-10-29T17:18:42.715Z,11.06
2022-10-29T17:21:11.435Z,11.06
2022-10-29T17:23:39.386Z,11.06
2022-10-29T17:26:07.259Z,11.05
2022-10-29T17:28:36.683Z,11.06
2022-10-29T17:31:06.875Z,11.08
2022-10-29T17:33:35.354Z,11.09
2022-10-29T17:36:13.250Z,11.12
2022-10-29T17:38:41.836Z,11.14
2022-10-29T17:41:10.000Z,11.13
2022-10-29T17:43:38.173Z,11.12
2022-10-29T17:46:06.022Z,11.11
2022-10-29T17:48:37.019Z,11.10
2022-10-29T17:51:04.933Z,11.04
2022-10-29T17:53:32.771Z,10.98
2022-10-29T17:56:01.331Z,10.93
2022-10-29T17:58:31.238Z,10.87
2022-10-29T18:01:06.985Z,10.79
2022-10-29T18:03:34.969Z,10.71
2022-10-29T18:06:06.168Z,10.60
2022-10-29T18:08:36.685Z,10.49
2022-10-29T18:11:18.921Z,10.44
2022-10-29T18:13:48.141Z,10.42
2022-10-29T18:16:18.746Z,10.41
2022-10-29T18:19:00.889Z,10.40
2022-10-29T18:21:30.935Z,10.37
2022-10-29T18:23:59.700Z,10.37
2022-10-29T18:26:34.077Z,10.38
2022-10-29T18:29:07.803Z,10.36
2022-10-29T18:31:37.633Z,10.36
2022-10-29T18:34:07.854Z,10.36
2022-10-29T18:36:36.416Z,10.33
2022-10-29T18:39:06.350Z,10.31
2022-10-29T18:41:35.392Z,10.28
2022-10-29T18:44:03.316Z,10.25
2022-10-29T18:46:31.087Z,10.22
2022-10-29T18:49:00.136Z,10.17
2022-10-29T18:51:30.537Z,10.11
2022-10-29T18:53:59.354Z,10.05
2022-10-29T18:56:28.526Z,10.02
2022-10-29T18:58:58.266Z,9.95
2022-10-29T19:01:30.521Z,9.86
2022-10-29T19:04:01.060Z,9.79
2022-10-29T19:06:31.660Z,9.69
2022-10-29T19:09:01.369Z,9.63
2022-10-29T19:11:29.815Z,9.58
2022-10-29T19:14:00.262Z,9.55
2022-10-29T19:16:29.388Z,9.53
2022-10-29T19:19:03.191Z,9.51
2022-10-29T19:21:34.515Z,9.49
2022-10-29T19:24:02.769Z,9.49
2022-10-29T19:26:33.641Z,9.48
2022-10-29T19:29:04.118Z,9.44
2022-10-29T19:31:34.172Z,9.44
2022-10-29T19:34:06.323Z,9.46
2022-10-29T19:36:36.434Z,9.42
2022-10-29T19:39:04.954Z,9.41
2022-10-29T19:41:33.280Z,9.37
2022-10-29T19:44:02.374Z,9.32
2022-10-29T19:46:30.376Z,9.29
2022-10-29T19:48:59.168Z,9.28
2022-10-29T19:51:27.140Z,9.22
2022-10-29T19:53:57.368Z,9.13
2022-10-29T19:56:25.146Z,9.05
2022-10-29T19:58:53.076Z,8.98
2022-10-29T20:01:21.124Z,8.90
2022-10-29T20:03:49.094Z,8.85
2022-10-29T20:06:18.020Z,8.84
2022-10-29T20:08:46.324Z,8.84
2022-10-29T20:11:14.303Z,8.84
2022-10-29T20:13:42.253Z,8.85
2022-10-29T20:16:15.382Z,8.85
2022-10-29T20:18:43.760Z,8.86
2022-10-29T20:21:12.667Z,8.88
2022-10-29T20:23:42.297Z,8.89
2022-10-29T20:26:10.924Z,8.89
2022-10-29T20:28:39.473Z,8.89
2022-10-29T20:31:10.516Z,8.88
2022-10-29T20:33:38.703Z,8.87
2022-10-29T20:36:06.723Z,8.86
2022-10-29T20:38:34.849Z,8.85
2022-10-29T20:41:02.614Z,8.80
2022-10-29T20:43:30.531Z,8.74
2022-10-29T20:46:00.917Z,8.71
2022-10-29T20:48:30.037Z,8.64
2022-10-29T20:50:57.997Z,8.57
2022-10-29T20:53:25.837Z,8.50
2022-10-29T20:55:54.317Z,8.46
2022-10-29T20:58:22.583Z,8.42
2022-10-29T21:00:50.505Z,8.37
2022-10-29T21:03:18.781Z,8.33
2022-10-29T21:05:46.582Z,8.30
2022-10-29T21:08:14.397Z,8.27
2022-10-29T21:10:42.228Z,8.25
2022-10-29T21:13:10.252Z,8.25
2022-10-29T21:15:38.158Z,8.25
2022-10-29T21:18:06.058Z,8.25
2022-10-29T21:20:33.852Z,8.28
2022-10-29T21:23:01.863Z,8.30
2022-10-29T21:25:29.649Z,8.28
2022-10-29T21:27:57.491Z,8.25
2022-10-29T21:30:25.640Z,8.23
2022-10-29T21:32:55.131Z,8.21
2022-10-29T21:35:22.892Z,8.21
2022-10-29T21:37:50.668Z,8.23
2022-10-29T21:40:18.471Z,8.22
2022-10-29T21:42:46.186Z,8.24
2022-10-29T21:45:14.067Z,8.24
2022-10-29T21:47:41.850Z,8.25
2022-10-29T21:50:10.543Z,8.25
2022-10-29T21:52:38.385Z,8.23
2022-10-29T21:55:07.306Z,8.17
2022-10-29T21:57:35.102Z,8.12
2022-10-29T22:00:05.274Z,8.07
2022-10-29T22:02:33.114Z,8.02
2022-10-29T22:05:01.140Z,7.97
2022-10-29T22:07:29.102Z,7.91
2022-10-29T22:09:56.969Z,7.83
2022-10-29T22:12:25.070Z,7.77
2022-10-29T22:14:52.971Z,7.73
2022-10-29T22:17:20.811Z,7.67
2022-10-29T22:19:48.693Z,7.65
2022-10-29T22:22:16.552Z,7.65
2022-10-29T22:24:44.176Z,7.64
2022-10-29T22:27:12.061Z,7.63
2022-10-29T22:29:39.930Z,7.60
2022-10-29T22:32:08.075Z,7.56
2022-10-29T22:34:35.779Z,7.54
2022-10-29T22:37:03.616Z,7.54
2022-10-29T22:39:31.457Z,7.55
2022-10-29T22:41:59.212Z,7.53
2022-10-29T22:44:26.964Z,7.50
2022-10-29T22:46:54.709Z,7.51
2022-10-29T22:49:22.427Z,7.55
2022-10-29T22:51:50.337Z,7.59
2022-10-29T22:54:18.159Z,7.57
2022-10-29T22:56:45.934Z,7.55
2022-10-29T22:59:13.845Z,7.48
2022-10-29T23:01:44.256Z,7.43
2022-10-29T23:04:13.888Z,7.41
2022-10-29T23:06:41.702Z,7.38
2022-10-29T23:09:09.592Z,7.33
2022-10-29T23:11:39.463Z,7.27
2022-10-29T23:14:07.383Z,7.20
2022-10-29T23:16:36.089Z,7.15
2022-10-29T23:19:05.719Z,7.12
2022-10-29T23:21:33.826Z,7.09
2022-10-29T23:24:01.805Z,7.08
2022-10-29T23:26:29.741Z,7.08
2022-10-29T23:28:57.574Z,7.08
2022-10-29T23:31:27.974Z,7.06
2022-10-29T23:33:57.342Z,7.04
2022-10-29T23:36:27.637Z,7.02
2022-10-29T23:39:00.787Z,7.02
2022-10-29T23:41:30.468Z,7.04
2022-10-29T23:43:58.424Z,7.07
2022-10-29T23:46:26.345Z,7.08
2022-10-29T23:48:54.264Z,7.09
2022-10-29T23:51:22.437Z,7.07
2022-10-29T23:53:54.702Z,7.03
2022-10-29T23:56:26.017Z,7.02
2022-10-29T23:58:54.067Z,7.02
